sensor_id;sensor_type;location;lat;lon;timestamp;temperature;humidity
4910;DHT22;2470;49.868;8.660;2023-05-23T00:02:17;20.70;99.90
4910;DHT22;2470;49.868;8.660;2023-05-23T00:04:43;20.70;99.90
4910;DHT22;2470;49.868;8.660;2023-05-23T00:07:09;20.60;99.90
4910;DHT22;2470;49.868;8.660;2023-05-23T00:09:34;20.60;99.90
4910;DHT22;2470;49.868;8.660;2023-05-23T00:12:00;20.60;99.90
4910;DHT22;2470;49.868;8.660;2023-05-23T00:14:26;20.60;99.90
4910;DHT22;2470;49.868;8.660;2023-05-23T00:16:52;20.50;99.90
4910;DHT22;2470;49.868;8.660;2023-05-23T00:19:17;20.50;99.90
4910;DHT22;2470;49.868;8.660;2023-05-23T00:21:45;20.50;99.90
4910;DHT22;2470;49.868;8.660;2023-05-23T00:24:12;20.50;99.90
4910;DHT22;2470;49.868;8.660;2023-05-23T00:26:38;20.50;99.90
4910;DHT22;2470;49.868;8.660;2023-05-23T00:29:04;20.40;99.90
4910;DHT22;2470;49.868;8.660;2023-05-23T00:31:30;20.40;99.90
4910;DHT22;2470;49.868;8.660;2023-05-23T00:33:55;20.40;99.90
4910;DHT22;2470;49.868;8.660;2023-05-23T00:36:21;20.40;99.90
4910;DHT22;2470;49.868;8.660;2023-05-23T00:38:47;20.30;99.90
4910;DHT22;2470;49.868;8.660;2023-05-23T00:41:13;20.30;99.90
4910;DHT22;2470;49.868;8.660;2023-05-23T00:43:39;20.30;99.90
4910;DHT22;2470;49.868;8.660;2023-05-23T00:46:04;20.30;99.90
4910;DHT22;2470;49.868;8.660;2023-05-23T00:48:30;20.30;99.90
4910;DHT22;2470;49.868;8.660;2023-05-23T00:50:56;20.20;99.90
4910;DHT22;2470;49.868;8.660;2023-05-23T00:53:22;20.20;99.90
4910;DHT22;2470;49.868;8.660;2023-05-23T00:55:48;20.10;99.90
4910;DHT22;2470;49.868;8.660;2023-05-23T00:58:14;20.20;99.90
4910;DHT22;2470;49.868;8.660;2023-05-23T01:00:40;20.20;99.90
4910;DHT22;2470;49.868;8.660;2023-05-23T01:03:06;20.10;99.90
4910;DHT22;2470;49.868;8.660;2023-05-23T01:05:32;20.00;99.90
4910;DHT22;2470;49.868;8.660;2023-05-23T01:07:57;19.90;99.90
4910;DHT22;2470;49.868;8.660;2023-05-23T01:10:27;20.00;99.90
4910;DHT22;2470;49.868;8.660;2023-05-23T01:13:12;20.00;99.90
4910;DHT22;2470;49.868;8.660;2023-05-23T01:16:05;20.00;99.90
4910;DHT22;2470;49.868;8.660;2023-05-23T01:18:49;19.90;99.90
4910;DHT22;2470;49.868;8.660;2023-05-23T01:21:20;19.90;99.90
4910;DHT22;2470;49.868;8.660;2023-05-23T01:29:53;19.80;99.90
4910;DHT22;2470;49.868;8.660;2023-05-23T01:32:20;19.90;99.90
4910;DHT22;2470;49.868;8.660;2023-05-23T01:34:47;19.90;99.90
4910;DHT22;2470;49.868;8.660;2023-05-23T01:37:13;19.80;99.90
4910;DHT22;2470;49.868;8.660;2023-05-23T01:39:42;19.80;99.90
4910;DHT22;2470;49.868;8.660;2023-05-23T01:42:08;19.80;99.90
4910;DHT22;2470;49.868;8.660;2023-05-23T01:44:34;19.80;99.90
4910;DHT22;2470;49.868;8.660;2023-05-23T01:47:02;19.80;99.90
4910;DHT22;2470;49.868;8.660;2023-05-23T01:49:28;19.80;99.90
4910;DHT22;2470;49.868;8.660;2023-05-23T01:51:55;19.80;99.90
4910;DHT22;2470;49.868;8.660;2023-05-23T01:54:21;19.80;99.90
4910;DHT22;2470;49.868;8.660;2023-05-23T01:56:47;19.70;99.90
4910;DHT22;2470;49.868;8.660;2023-05-23T01:59:13;19.70;99.90
4910;DHT22;2470;49.868;8.660;2023-05-23T02:01:39;19.70;99.90
4910;DHT22;2470;49.868;8.660;2023-05-23T02:04:05;19.60;99.90
4910;DHT22;2470;49.868;8.660;2023-05-23T02:06:31;19.60;99.90
4910;DHT22;2470;49.868;8.660;2023-05-23T02:08:56;19.60;99.90
4910;DHT22;2470;49.868;8.660;2023-05-23T02:11:22;19.60;99.90
4910;DHT22;2470;49.868;8.660;2023-05-23T02:13:47;19.60;99.90
4910;DHT22;2470;49.868;8.660;2023-05-23T02:16:13;19.60;99.90
4910;DHT22;2470;49.868;8.660;2023-05-23T02:18:38;19.60;99.90
4910;DHT22;2470;49.868;8.660;2023-05-23T02:21:04;19.70;99.90
4910;DHT22;2470;49.868;8.660;2023-05-23T02:23:31;19.70;99.90
4910;DHT22;2470;49.868;8.660;2023-05-23T02:25:56;19.70;99.90
4910;DHT22;2470;49.868;8.660;2023-05-23T02:28:22;19.70;99.90
4910;DHT22;2470;49.868;8.660;2023-05-23T02:30:47;19.70;99.90
4910;DHT22;2470;49.868;8.660;2023-05-23T02:33:13;19.60;99.90
4910;DHT22;2470;49.868;8.660;2023-05-23T02:35:38;19.60;99.90
4910;DHT22;2470;49.868;8.660;2023-05-23T02:38:04;19.60;99.90
4910;DHT22;2470;49.868;8.660;2023-05-23T02:40:29;19.60;99.90
4910;DHT22;2470;49.868;8.660;2023-05-23T02:42:55;19.50;99.90
4910;DHT22;2470;49.868;8.660;2023-05-23T02:45:22;19.50;99.90
4910;DHT22;2470;49.868;8.660;2023-05-23T02:47:48;19.40;99.90
4910;DHT22;2470;49.868;8.660;2023-05-23T02:50:13;19.40;99.90
4910;DHT22;2470;49.868;8.660;2023-05-23T02:52:39;19.30;99.90
4910;DHT22;2470;49.868;8.660;2023-05-23T02:55:07;19.30;99.90
4910;DHT22;2470;49.868;8.660;2023-05-23T02:57:32;19.30;99.90
4910;DHT22;2470;49.868;8.660;2023-05-23T02:59:58;19.30;99.90
4910;DHT22;2470;49.868;8.660;2023-05-23T03:02:23;19.30;99.90
4910;DHT22;2470;49.868;8.660;2023-05-23T03:04:49;19.30;99.90
4910;DHT22;2470;49.868;8.660;2023-05-23T03:07:15;19.40;99.90
4910;DHT22;2470;49.868;8.660;2023-05-23T03:09:40;19.40;99.90
4910;DHT22;2470;49.868;8.660;2023-05-23T03:12:06;19.40;99.90
4910;DHT22;2470;49.868;8.660;2023-05-23T03:14:31;19.30;99.90
4910;DHT22;2470;49.868;8.660;2023-05-23T03:16:57;19.40;99.90
4910;DHT22;2470;49.868;8.660;2023-05-23T03:19:22;19.40;99.90
4910;DHT22;2470;49.868;8.660;2023-05-23T03:21:48;19.40;99.90
4910;DHT22;2470;49.868;8.660;2023-05-23T03:24:15;19.40;99.90
4910;DHT22;2470;49.868;8.660;2023-05-23T03:26:40;19.40;99.90
4910;DHT22;2470;49.868;8.660;2023-05-23T03:29:06;19.40;99.90
4910;DHT22;2470;49.868;8.660;2023-05-23T03:31:31;19.40;99.90
4910;DHT22;2470;49.868;8.660;2023-05-23T03:33:57;19.30;99.90
4910;DHT22;2470;49.868;8.660;2023-05-23T03:36:22;19.30;99.90
4910;DHT22;2470;49.868;8.660;2023-05-23T03:38:51;19.30;99.90
4910;DHT22;2470;49.868;8.660;2023-05-23T03:41:17;19.30;99.90
4910;DHT22;2470;49.868;8.660;2023-05-23T03:43:43;19.30;99.90
4910;DHT22;2470;49.868;8.660;2023-05-23T03:46:08;19.30;99.90
4910;DHT22;2470;49.868;8.660;2023-05-23T03:48:34;19.30;99.90
4910;DHT22;2470;49.868;8.660;2023-05-23T03:50:59;19.30;99.90
4910;DHT22;2470;49.868;8.660;2023-05-23T03:53:25;19.20;99.90
4910;DHT22;2470;49.868;8.660;2023-05-23T03:55:50;19.20;99.90
4910;DHT22;2470;49.868;8.660;2023-05-23T03:58:19;19.20;99.90
4910;DHT22;2470;49.868;8.660;2023-05-23T04:00:44;19.20;99.90
4910;DHT22;2470;49.868;8.660;2023-05-23T04:03:10;19.20;99.90
4910;DHT22;2470;49.868;8.660;2023-05-23T04:05:38;19.10;99.90
4910;DHT22;2470;49.868;8.660;2023-05-23T04:08:04;19.10;99.90
4910;DHT22;2470;49.868;8.660;2023-05-23T04:10:29;19.10;99.90
4910;DHT22;2470;49.868;8.660;2023-05-23T04:12:55;19.10;99.90
4910;DHT22;2470;49.868;8.660;2023-05-23T04:15:21;19.00;99.90
4910;DHT22;2470;49.868;8.660;2023-05-23T04:17:46;18.90;99.90
4910;DHT22;2470;49.868;8.660;2023-05-23T04:20:12;18.80;99.90
4910;DHT22;2470;49.868;8.660;2023-05-23T04:22:37;18.70;99.90
4910;DHT22;2470;49.868;8.660;2023-05-23T04:25:04;18.60;99.90
4910;DHT22;2470;49.868;8.660;2023-05-23T04:27:30;18.60;99.90
4910;DHT22;2470;49.868;8.660;2023-05-23T04:29:56;18.50;99.90
4910;DHT22;2470;49.868;8.660;2023-05-23T04:32:22;18.40;99.90
4910;DHT22;2470;49.868;8.660;2023-05-23T04:34:48;18.40;99.90
4910;DHT22;2470;49.868;8.660;2023-05-23T04:37:14;18.40;99.90
4910;DHT22;2470;49.868;8.660;2023-05-23T04:39:41;18.30;99.90
4910;DHT22;2470;49.868;8.660;2023-05-23T04:42:07;18.30;99.90
4910;DHT22;2470;49.868;8.660;2023-05-23T04:44:32;18.30;99.90
4910;DHT22;2470;49.868;8.660;2023-05-23T04:46:58;18.40;99.90
4910;DHT22;2470;49.868;8.660;2023-05-23T04:49:23;18.40;99.90
4910;DHT22;2470;49.868;8.660;2023-05-23T04:51:49;18.50;99.90
4910;DHT22;2470;49.868;8.660;2023-05-23T04:54:15;18.50;99.90
4910;DHT22;2470;49.868;8.660;2023-05-23T04:56:40;18.50;99.90
4910;DHT22;2470;49.868;8.660;2023-05-23T04:59:06;18.60;99.90
4910;DHT22;2470;49.868;8.660;2023-05-23T05:01:33;18.60;99.90
4910;DHT22;2470;49.868;8.660;2023-05-23T05:03:58;18.60;99.90
4910;DHT22;2470;49.868;8.660;2023-05-23T05:06:24;18.50;99.90
4910;DHT22;2470;49.868;8.660;2023-05-23T05:08:51;18.60;99.90
4910;DHT22;2470;49.868;8.660;2023-05-23T05:11:17;18.60;99.90
4910;DHT22;2470;49.868;8.660;2023-05-23T05:13:42;18.60;99.90
4910;DHT22;2470;49.868;8.660;2023-05-23T05:16:08;18.50;99.90
4910;DHT22;2470;49.868;8.660;2023-05-23T05:18:34;18.40;99.90
4910;DHT22;2470;49.868;8.660;2023-05-23T05:21:00;18.30;99.90
4910;DHT22;2470;49.868;8.660;2023-05-23T05:23:26;18.30;99.90
4910;DHT22;2470;49.868;8.660;2023-05-23T05:25:55;18.20;99.90
4910;DHT22;2470;49.868;8.660;2023-05-23T05:28:21;18.20;99.90
4910;DHT22;2470;49.868;8.660;2023-05-23T05:30:47;18.20;99.90
4910;DHT22;2470;49.868;8.660;2023-05-23T05:33:13;18.30;99.90
4910;DHT22;2470;49.868;8.660;2023-05-23T05:35:39;18.30;99.90
4910;DHT22;2470;49.868;8.660;2023-05-23T05:38:04;18.30;99.90
4910;DHT22;2470;49.868;8.660;2023-05-23T05:40:31;18.30;99.90
4910;DHT22;2470;49.868;8.660;2023-05-23T05:42:57;18.40;99.90
4910;DHT22;2470;49.868;8.660;2023-05-23T05:45:22;18.50;99.90
4910;DHT22;2470;49.868;8.660;2023-05-23T05:47:48;18.50;99.90
4910;DHT22;2470;49.868;8.660;2023-05-23T05:50:13;18.40;99.90
4910;DHT22;2470;49.868;8.660;2023-05-23T05:52:40;18.40;99.90
4910;DHT22;2470;49.868;8.660;2023-05-23T05:55:07;18.40;99.90
4910;DHT22;2470;49.868;8.660;2023-05-23T05:57:34;18.40;99.90
4910;DHT22;2470;49.868;8.660;2023-05-23T06:00:09;18.50;99.90
4910;DHT22;2470;49.868;8.660;2023-05-23T06:02:42;18.50;99.90
4910;DHT22;2470;49.868;8.660;2023-05-23T06:05:11;18.50;99.90
4910;DHT22;2470;49.868;8.660;2023-05-23T06:07:38;18.60;99.90
4910;DHT22;2470;49.868;8.660;2023-05-23T06:10:04;18.60;99.90
4910;DHT22;2470;49.868;8.660;2023-05-23T06:12:29;18.60;99.90
4910;DHT22;2470;49.868;8.660;2023-05-23T06:14:55;18.70;99.90
4910;DHT22;2470;49.868;8.660;2023-05-23T06:17:20;18.80;99.90
4910;DHT22;2470;49.868;8.660;2023-05-23T06:19:46;18.90;99.90
4910;DHT22;2470;49.868;8.660;2023-05-23T06:22:11;18.80;99.90
4910;DHT22;2470;49.868;8.660;2023-05-23T06:24:37;18.80;99.90
4910;DHT22;2470;49.868;8.660;2023-05-23T06:27:03;18.80;99.90
4910;DHT22;2470;49.868;8.660;2023-05-23T06:29:28;18.80;99.90
4910;DHT22;2470;49.868;8.660;2023-05-23T06:31:55;18.80;99.90
4910;DHT22;2470;49.868;8.660;2023-05-23T06:34:21;18.80;99.90
4910;DHT22;2470;49.868;8.660;2023-05-23T06:36:46;18.70;99.90
4910;DHT22;2470;49.868;8.660;2023-05-23T06:39:13;18.80;99.90
4910;DHT22;2470;49.868;8.660;2023-05-23T06:41:38;18.80;99.90
4910;DHT22;2470;49.868;8.660;2023-05-23T06:44:04;18.80;99.90
4910;DHT22;2470;49.868;8.660;2023-05-23T06:46:30;18.80;99.90
4910;DHT22;2470;49.868;8.660;2023-05-23T06:48:55;18.90;99.90
4910;DHT22;2470;49.868;8.660;2023-05-23T06:51:21;18.90;99.90
4910;DHT22;2470;49.868;8.660;2023-05-23T06:53:47;18.80;99.90
4910;DHT22;2470;49.868;8.660;2023-05-23T06:56:12;18.80;99.90
4910;DHT22;2470;49.868;8.660;2023-05-23T06:58:38;18.70;99.90
4910;DHT22;2470;49.868;8.660;2023-05-23T07:01:03;18.80;99.90
4910;DHT22;2470;49.868;8.660;2023-05-23T07:03:29;18.70;99.90
4910;DHT22;2470;49.868;8.660;2023-05-23T07:05:55;18.80;99.90
4910;DHT22;2470;49.868;8.660;2023-05-23T07:08:20;18.70;99.90
4910;DHT22;2470;49.868;8.660;2023-05-23T07:10:46;18.70;99.90
4910;DHT22;2470;49.868;8.660;2023-05-23T07:13:11;18.70;99.90
4910;DHT22;2470;49.868;8.660;2023-05-23T07:15:37;18.70;99.90
4910;DHT22;2470;49.868;8.660;2023-05-23T07:18:02;18.70;99.90
4910;DHT22;2470;49.868;8.660;2023-05-23T07:20:28;18.70;99.90
4910;DHT22;2470;49.868;8.660;2023-05-23T07:22:54;18.80;99.90
4910;DHT22;2470;49.868;8.660;2023-05-23T07:25:19;18.80;99.90
4910;DHT22;2470;49.868;8.660;2023-05-23T07:27:47;18.90;99.90
4910;DHT22;2470;49.868;8.660;2023-05-23T07:30:13;18.80;99.90
4910;DHT22;2470;49.868;8.660;2023-05-23T07:32:38;18.90;99.90
4910;DHT22;2470;49.868;8.660;2023-05-23T07:35:04;18.90;99.90
4910;DHT22;2470;49.868;8.660;2023-05-23T07:37:30;19.00;99.90
4910;DHT22;2470;49.868;8.660;2023-05-23T07:39:55;19.00;99.90
4910;DHT22;2470;49.868;8.660;2023-05-23T07:42:21;19.00;99.90
4910;DHT22;2470;49.868;8.660;2023-05-23T07:44:46;19.10;99.90
4910;DHT22;2470;49.868;8.660;2023-05-23T07:47:12;19.20;99.90
4910;DHT22;2470;49.868;8.660;2023-05-23T07:49:37;19.20;99.90
4910;DHT22;2470;49.868;8.660;2023-05-23T07:52:03;19.40;99.90
4910;DHT22;2470;49.868;8.660;2023-05-23T07:54:28;19.60;99.90
4910;DHT22;2470;49.868;8.660;2023-05-23T07:56:54;19.80;99.90
4910;DHT22;2470;49.868;8.660;2023-05-23T07:59:19;19.80;99.90
4910;DHT22;2470;49.868;8.660;2023-05-23T08:01:46;19.90;99.90
4910;DHT22;2470;49.868;8.660;2023-05-23T08:04:15;19.90;99.90
4910;DHT22;2470;49.868;8.660;2023-05-23T08:06:40;20.00;99.90
4910;DHT22;2470;49.868;8.660;2023-05-23T08:09:06;20.10;99.90
4910;DHT22;2470;49.868;8.660;2023-05-23T08:11:31;20.00;99.90
4910;DHT22;2470;49.868;8.660;2023-05-23T08:13:57;20.10;99.90
4910;DHT22;2470;49.868;8.660;2023-05-23T08:16:24;20.20;99.90
4910;DHT22;2470;49.868;8.660;2023-05-23T08:18:50;20.20;99.90
4910;DHT22;2470;49.868;8.660;2023-05-23T08:21:15;20.20;99.90
4910;DHT22;2470;49.868;8.660;2023-05-23T08:23:41;20.10;99.90
4910;DHT22;2470;49.868;8.660;2023-05-23T08:26:06;20.10;99.90
4910;DHT22;2470;49.868;8.660;2023-05-23T08:28:32;20.10;99.90
4910;DHT22;2470;49.868;8.660;2023-05-23T08:30:59;20.00;99.90
4910;DHT22;2470;49.868;8.660;2023-05-23T08:33:25;20.00;99.90
4910;DHT22;2470;49.868;8.660;2023-05-23T08:35:50;20.10;99.90
4910;DHT22;2470;49.868;8.660;2023-05-23T08:38:16;20.20;99.90
4910;DHT22;2470;49.868;8.660;2023-05-23T08:40:50;20.30;99.90
4910;DHT22;2470;49.868;8.660;2023-05-23T08:43:17;20.40;99.90
4910;DHT22;2470;49.868;8.660;2023-05-23T08:45:42;20.50;99.90
4910;DHT22;2470;49.868;8.660;2023-05-23T08:48:09;20.60;99.90
4910;DHT22;2470;49.868;8.660;2023-05-23T08:50:39;20.70;99.90
4910;DHT22;2470;49.868;8.660;2023-05-23T08:53:05;20.80;99.90
4910;DHT22;2470;49.868;8.660;2023-05-23T08:55:36;20.90;99.90
4910;DHT22;2470;49.868;8.660;2023-05-23T08:58:02;21.00;99.90
4910;DHT22;2470;49.868;8.660;2023-05-23T09:00:28;21.10;99.90
4910;DHT22;2470;49.868;8.660;2023-05-23T09:02:54;21.40;99.90
4910;DHT22;2470;49.868;8.660;2023-05-23T09:05:20;21.40;99.90
4910;DHT22;2470;49.868;8.660;2023-05-23T09:07:46;21.30;99.90
4910;DHT22;2470;49.868;8.660;2023-05-23T09:10:13;21.30;99.90
4910;DHT22;2470;49.868;8.660;2023-05-23T09:12:41;21.40;99.90
4910;DHT22;2470;49.868;8.660;2023-05-23T09:15:08;21.40;99.90
4910;DHT22;2470;49.868;8.660;2023-05-23T09:17:35;21.50;99.90
4910;DHT22;2470;49.868;8.660;2023-05-23T09:20:02;21.50;99.90
4910;DHT22;2470;49.868;8.660;2023-05-23T09:22:29;21.50;99.90
4910;DHT22;2470;49.868;8.660;2023-05-23T09:24:55;21.50;99.90
4910;DHT22;2470;49.868;8.660;2023-05-23T09:27:21;21.40;99.90
4910;DHT22;2470;49.868;8.660;2023-05-23T09:29:48;21.40;99.90
4910;DHT22;2470;49.868;8.660;2023-05-23T09:32:18;21.20;99.90
4910;DHT22;2470;49.868;8.660;2023-05-23T09:34:55;21.10;99.90
4910;DHT22;2470;49.868;8.660;2023-05-23T09:37:23;20.90;99.90
4910;DHT22;2470;49.868;8.660;2023-05-23T09:39:50;20.80;99.90
4910;DHT22;2470;49.868;8.660;2023-05-23T09:42:22;20.80;99.90
4910;DHT22;2470;49.868;8.660;2023-05-23T09:44:48;20.90;99.90
4910;DHT22;2470;49.868;8.660;2023-05-23T09:47:15;21.00;99.90
4910;DHT22;2470;49.868;8.660;2023-05-23T09:49:42;21.00;99.90
4910;DHT22;2470;49.868;8.660;2023-05-23T09:52:08;20.90;99.90
4910;DHT22;2470;49.868;8.660;2023-05-23T09:54:34;20.80;99.90
4910;DHT22;2470;49.868;8.660;2023-05-23T09:57:01;20.60;99.90
4910;DHT22;2470;49.868;8.660;2023-05-23T09:59:28;20.60;99.90
4910;DHT22;2470;49.868;8.660;2023-05-23T10:01:56;20.60;99.90
4910;DHT22;2470;49.868;8.660;2023-05-23T10:04:22;20.50;99.90
4910;DHT22;2470;49.868;8.660;2023-05-23T10:06:52;20.30;99.90
4910;DHT22;2470;49.868;8.660;2023-05-23T10:09:22;20.20;99.90
4910;DHT22;2470;49.868;8.660;2023-05-23T10:14:56;20.20;99.90
4910;DHT22;2470;49.868;8.660;2023-05-23T10:17:33;20.30;99.90
4910;DHT22;2470;49.868;8.660;2023-05-23T10:20:04;20.40;99.90
4910;DHT22;2470;49.868;8.660;2023-05-23T10:22:35;20.50;99.90
4910;DHT22;2470;49.868;8.660;2023-05-23T10:25:03;20.50;99.90
4910;DHT22;2470;49.868;8.660;2023-05-23T10:27:30;20.50;99.90
4910;DHT22;2470;49.868;8.660;2023-05-23T10:29:57;20.60;99.90
4910;DHT22;2470;49.868;8.660;2023-05-23T10:32:24;20.70;99.90
4910;DHT22;2470;49.868;8.660;2023-05-23T10:35:01;21.00;99.90
4910;DHT22;2470;49.868;8.660;2023-05-23T10:37:49;21.10;99.90
4910;DHT22;2470;49.868;8.660;2023-05-23T10:43:32;21.40;99.90
4910;DHT22;2470;49.868;8.660;2023-05-23T10:45:58;21.40;99.90
4910;DHT22;2470;49.868;8.660;2023-05-23T10:51:12;21.50;99.90
4910;DHT22;2470;49.868;8.660;2023-05-23T10:53:45;21.50;99.50
4910;DHT22;2470;49.868;8.660;2023-05-23T10:56:21;21.30;99.50
4910;DHT22;2470;49.868;8.660;2023-05-23T10:58:54;21.20;99.80
4910;DHT22;2470;49.868;8.660;2023-05-23T11:01:20;21.00;99.90
4910;DHT22;2470;49.868;8.660;2023-05-23T11:09:14;20.70;99.90
4910;DHT22;2470;49.868;8.660;2023-05-23T11:16:56;21.10;99.90
4910;DHT22;2470;49.868;8.660;2023-05-23T11:19:23;21.20;99.90
4910;DHT22;2470;49.868;8.660;2023-05-23T11:21:59;21.40;99.90
4910;DHT22;2470;49.868;8.660;2023-05-23T11:27:17;22.10;99.90
4910;DHT22;2470;49.868;8.660;2023-05-23T11:29:55;22.40;99.20
4910;DHT22;2470;49.868;8.660;2023-05-23T11:32:22;22.60;98.50
4910;DHT22;2470;49.868;8.660;2023-05-23T11:34:48;22.70;98.20
4910;DHT22;2470;49.868;8.660;2023-05-23T11:37:14;22.80;97.70
4910;DHT22;2470;49.868;8.660;2023-05-23T11:39:39;22.90;98.00
4910;DHT22;2470;49.868;8.660;2023-05-23T11:42:05;23.10;97.40
4910;DHT22;2470;49.868;8.660;2023-05-23T11:44:31;23.20;96.80
4910;DHT22;2470;49.868;8.660;2023-05-23T11:47:06;23.30;96.80
4910;DHT22;2470;49.868;8.660;2023-05-23T11:49:38;23.20;96.80
4910;DHT22;2470;49.868;8.660;2023-05-23T11:52:05;22.90;96.60
4910;DHT22;2470;49.868;8.660;2023-05-23T11:54:31;22.70;96.80
4910;DHT22;2470;49.868;8.660;2023-05-23T11:56:57;22.40;97.10
4910;DHT22;2470;49.868;8.660;2023-05-23T11:59:23;22.30;97.60
4910;DHT22;2470;49.868;8.660;2023-05-23T12:01:50;22.30;97.50
4910;DHT22;2470;49.868;8.660;2023-05-23T12:04:16;22.40;97.60
4910;DHT22;2470;49.868;8.660;2023-05-23T12:06:41;22.70;98.00
4910;DHT22;2470;49.868;8.660;2023-05-23T12:09:10;23.00;97.40
4910;DHT22;2470;49.868;8.660;2023-05-23T12:11:36;23.30;97.30
4910;DHT22;2470;49.868;8.660;2023-05-23T12:14:02;23.70;96.20
4910;DHT22;2470;49.868;8.660;2023-05-23T12:16:31;23.90;95.60
4910;DHT22;2470;49.868;8.660;2023-05-23T12:18:57;24.00;95.60
4910;DHT22;2470;49.868;8.660;2023-05-23T12:21:24;24.10;95.30
4910;DHT22;2470;49.868;8.660;2023-05-23T12:23:50;24.20;95.20
4910;DHT22;2470;49.868;8.660;2023-05-23T12:26:16;24.40;95.00
4910;DHT22;2470;49.868;8.660;2023-05-23T12:28:43;24.70;94.60
4910;DHT22;2470;49.868;8.660;2023-05-23T12:31:17;24.90;94.10
4910;DHT22;2470;49.868;8.660;2023-05-23T12:33:43;24.90;93.80
4910;DHT22;2470;49.868;8.660;2023-05-23T12:36:30;24.70;93.90
4910;DHT22;2470;49.868;8.660;2023-05-23T12:39:04;24.70;93.80
4910;DHT22;2470;49.868;8.660;2023-05-23T12:41:32;24.60;93.50
4910;DHT22;2470;49.868;8.660;2023-05-23T12:43:58;24.30;93.30
4910;DHT22;2470;49.868;8.660;2023-05-23T12:46:25;23.70;93.50
4910;DHT22;2470;49.868;8.660;2023-05-23T12:48:51;23.20;94.40
4910;DHT22;2470;49.868;8.660;2023-05-23T12:51:17;23.00;95.20
4910;DHT22;2470;49.868;8.660;2023-05-23T12:53:42;23.40;95.20
4910;DHT22;2470;49.868;8.660;2023-05-23T12:56:08;23.90;94.70
4910;DHT22;2470;49.868;8.660;2023-05-23T12:58:33;24.10;93.90
4910;DHT22;2470;49.868;8.660;2023-05-23T13:01:00;24.50;93.10
4910;DHT22;2470;49.868;8.660;2023-05-23T13:03:25;24.80;93.10
4910;DHT22;2470;49.868;8.660;2023-05-23T13:05:51;24.80;92.70
4910;DHT22;2470;49.868;8.660;2023-05-23T13:08:18;24.60;92.90
4910;DHT22;2470;49.868;8.660;2023-05-23T13:10:44;24.20;93.20
4910;DHT22;2470;49.868;8.660;2023-05-23T13:13:10;23.90;93.30
4910;DHT22;2470;49.868;8.660;2023-05-23T13:15:35;23.60;93.50
4910;DHT22;2470;49.868;8.660;2023-05-23T13:18:01;23.20;93.70
4910;DHT22;2470;49.868;8.660;2023-05-23T13:20:27;22.80;94.10
4910;DHT22;2470;49.868;8.660;2023-05-23T13:22:55;22.50;94.70
4910;DHT22;2470;49.868;8.660;2023-05-23T13:25:21;22.40;95.30
4910;DHT22;2470;49.868;8.660;2023-05-23T13:27:46;22.30;94.70
4910;DHT22;2470;49.868;8.660;2023-05-23T13:30:12;22.30;95.10
4910;DHT22;2470;49.868;8.660;2023-05-23T13:32:38;22.30;94.90
4910;DHT22;2470;49.868;8.660;2023-05-23T13:35:03;22.30;95.00
4910;DHT22;2470;49.868;8.660;2023-05-23T13:37:29;22.30;94.60
4910;DHT22;2470;49.868;8.660;2023-05-23T13:39:55;22.20;94.30
4910;DHT22;2470;49.868;8.660;2023-05-23T13:42:20;22.10;94.30
4910;DHT22;2470;49.868;8.660;2023-05-23T13:44:46;22.20;94.70
4910;DHT22;2470;49.868;8.660;2023-05-23T13:47:13;22.20;94.30
4910;DHT22;2470;49.868;8.660;2023-05-23T13:49:39;22.30;94.50
4910;DHT22;2470;49.868;8.660;2023-05-23T13:52:05;22.50;94.50
4910;DHT22;2470;49.868;8.660;2023-05-23T13:54:30;22.70;94.40
4910;DHT22;2470;49.868;8.660;2023-05-23T13:56:56;23.50;93.80
4910;DHT22;2470;49.868;8.660;2023-05-23T13:59:23;23.90;92.90
4910;DHT22;2470;49.868;8.660;2023-05-23T14:01:48;24.50;92.50
4910;DHT22;2470;49.868;8.660;2023-05-23T14:04:14;26.30;91.30
4910;DHT22;2470;49.868;8.660;2023-05-23T14:06:39;28.70;84.40
4910;DHT22;2470;49.868;8.660;2023-05-23T14:09:05;29.60;79.00
4910;DHT22;2470;49.868;8.660;2023-05-23T14:11:31;29.60;74.80
4910;DHT22;2470;49.868;8.660;2023-05-23T14:13:57;29.90;71.70
4910;DHT22;2470;49.868;8.660;2023-05-23T14:16:22;29.40;70.50
4910;DHT22;2470;49.868;8.660;2023-05-23T14:18:48;28.30;70.40
4910;DHT22;2470;49.868;8.660;2023-05-23T14:21:14;27.20;73.00
4910;DHT22;2470;49.868;8.660;2023-05-23T14:23:40;27.30;75.50
4910;DHT22;2470;49.868;8.660;2023-05-23T14:26:05;27.50;73.70
4910;DHT22;2470;49.868;8.660;2023-05-23T14:28:31;27.00;74.90
4910;DHT22;2470;49.868;8.660;2023-05-23T14:30:57;28.10;74.70
4910;DHT22;2470;49.868;8.660;2023-05-23T14:33:25;28.40;73.40
4910;DHT22;2470;49.868;8.660;2023-05-23T14:35:51;27.90;74.00
4910;DHT22;2470;49.868;8.660;2023-05-23T14:38:17;28.00;72.70
4910;DHT22;2470;49.868;8.660;2023-05-23T14:40:43;27.40;72.30
4910;DHT22;2470;49.868;8.660;2023-05-23T14:43:08;26.80;73.50
4910;DHT22;2470;49.868;8.660;2023-05-23T14:45:34;26.10;74.50
4910;DHT22;2470;49.868;8.660;2023-05-23T14:48:00;25.30;76.10
4910;DHT22;2470;49.868;8.660;2023-05-23T14:50:26;24.70;77.60
4910;DHT22;2470;49.868;8.660;2023-05-23T14:52:52;24.10;78.90
4910;DHT22;2470;49.868;8.660;2023-05-23T14:55:17;24.00;80.90
4910;DHT22;2470;49.868;8.660;2023-05-23T14:57:43;23.90;81.00
4910;DHT22;2470;49.868;8.660;2023-05-23T15:00:09;23.60;81.70
4910;DHT22;2470;49.868;8.660;2023-05-23T15:02:36;23.20;82.30
4910;DHT22;2470;49.868;8.660;2023-05-23T15:05:02;22.80;83.00
4910;DHT22;2470;49.868;8.660;2023-05-23T15:07:29;22.50;84.20
4910;DHT22;2470;49.868;8.660;2023-05-23T15:09:54;22.20;85.60
4910;DHT22;2470;49.868;8.660;2023-05-23T15:12:20;22.00;86.60
4910;DHT22;2470;49.868;8.660;2023-05-23T15:14:46;21.80;87.20
4910;DHT22;2470;49.868;8.660;2023-05-23T15:17:11;21.60;87.30
4910;DHT22;2470;49.868;8.660;2023-05-23T15:19:43;21.40;87.80
4910;DHT22;2470;49.868;8.660;2023-05-23T15:22:09;21.20;89.70
4910;DHT22;2470;49.868;8.660;2023-05-23T15:24:34;21.00;90.20
4910;DHT22;2470;49.868;8.660;2023-05-23T15:27:00;20.70;90.60
4910;DHT22;2470;49.868;8.660;2023-05-23T15:29:25;20.60;91.00
4910;DHT22;2470;49.868;8.660;2023-05-23T15:31:51;20.50;91.30
4910;DHT22;2470;49.868;8.660;2023-05-23T15:34:18;20.30;91.50
4910;DHT22;2470;49.868;8.660;2023-05-23T15:36:43;20.20;91.90
4910;DHT22;2470;49.868;8.660;2023-05-23T15:39:10;20.20;92.10
4910;DHT22;2470;49.868;8.660;2023-05-23T15:41:36;20.20;92.40
4910;DHT22;2470;49.868;8.660;2023-05-23T15:44:02;20.20;92.70
4910;DHT22;2470;49.868;8.660;2023-05-23T15:46:27;20.30;92.90
4910;DHT22;2470;49.868;8.660;2023-05-23T15:48:53;20.40;92.80
4910;DHT22;2470;49.868;8.660;2023-05-23T15:51:21;20.50;92.50
4910;DHT22;2470;49.868;8.660;2023-05-23T15:53:46;20.60;92.20
4910;DHT22;2470;49.868;8.660;2023-05-23T15:56:11;20.60;92.00
4910;DHT22;2470;49.868;8.660;2023-05-23T15:58:37;20.60;91.90
4910;DHT22;2470;49.868;8.660;2023-05-23T16:01:02;20.60;91.70
4910;DHT22;2470;49.868;8.660;2023-05-23T16:03:28;20.50;91.60
4910;DHT22;2470;49.868;8.660;2023-05-23T16:05:53;20.40;91.90
4910;DHT22;2470;49.868;8.660;2023-05-23T16:08:19;20.40;91.90
4910;DHT22;2470;49.868;8.660;2023-05-23T16:10:45;20.30;92.20
4910;DHT22;2470;49.868;8.660;2023-05-23T16:13:10;20.30;92.30
4910;DHT22;2470;49.868;8.660;2023-05-23T16:15:36;20.30;91.80
4910;DHT22;2470;49.868;8.660;2023-05-23T16:18:01;20.30;91.90
4910;DHT22;2470;49.868;8.660;2023-05-23T16:20:27;20.20;92.20
4910;DHT22;2470;49.868;8.660;2023-05-23T16:22:53;20.20;92.10
4910;DHT22;2470;49.868;8.660;2023-05-23T16:25:18;20.20;92.20
4910;DHT22;2470;49.868;8.660;2023-05-23T16:27:44;20.20;92.00